createdAt,value
2018-11-03T00:01:27.645Z,99060.75
2018-11-03T00:03:56.127Z,99066.33
2018-11-03T00:06:24.628Z,99070.42
2018-11-03T00:08:53.139Z,99077.92
2018-11-03T00:11:21.595Z,99077.45
2018-11-03T00:13:50.124Z,99068.81
2018-11-03T00:16:18.607Z,99064.12
2018-11-03T00:18:47.384Z,99060.64
2018-11-03T00:21:15.864Z,99065.48
2018-11-03T00:23:44.406Z,99070.55
2018-11-03T00:26:12.892Z,99067.91
2018-11-03T00:28:41.404Z,99078.05
2018-11-03T00:31:09.914Z,99063.62
2018-11-03T00:33:38.397Z,99057.22
2018-11-03T00:36:07.229Z,99060.91
2018-11-03T00:38:35.744Z,99064.63
2018-11-03T00:41:04.288Z,99066.48
2018-11-03T00:43:32.756Z,99077.37
2018-11-03T00:46:01.256Z,99073.73
2018-11-03T00:48:29.741Z,99067.81
2018-11-03T00:50:58.204Z,99064.88
2018-11-03T00:53:26.672Z,99066.31
2018-11-03T00:55:55.171Z,99070.67
2018-11-03T00:58:23.677Z,99063.28
2018-11-03T01:00:52.128Z,99060.78
2018-11-03T01:03:20.675Z,99055.74
2018-11-03T01:05:49.131Z,99048.30
2018-11-03T01:08:17.612Z,99051.58
2018-11-03T01:10:46.114Z,99055.60
2018-11-03T01:13:14.571Z,99059.27
2018-11-03T01:15:43.080Z,99069.95
2018-11-03T01:18:11.542Z,99078.93
2018-11-03T01:20:40.249Z,99081.91
2018-11-03T01:23:09.028Z,99087.33
2018-11-03T01:25:37.515Z,99080.83
2018-11-03T01:28:06.028Z,99078.67
2018-11-03T01:30:34.908Z,99081.91
2018-11-03T01:33:03.397Z,99078.55
2018-11-03T01:35:31.929Z,99080.20
2018-11-03T01:38:00.413Z,99077.63
2018-11-03T01:40:28.918Z,99076.89
2018-11-03T01:42:57.429Z,99068.09
2018-11-03T01:45:26.013Z,99068.58
2018-11-03T01:47:54.518Z,99065.17
2018-11-03T01:50:23.132Z,99064.08
2018-11-03T01:52:51.608Z,99062.77
2018-11-03T01:55:20.092Z,99071.23
2018-11-03T01:57:48.599Z,99075.83
2018-11-03T02:00:17.092Z,99084.19
2018-11-03T02:02:45.579Z,99086.27
2018-11-03T02:05:14.127Z,99086.53
2018-11-03T02:07:42.668Z,99096.91
2018-11-03T02:10:12.256Z,99093.96
2018-11-03T02:12:41.007Z,99098.81
2018-11-03T02:15:09.924Z,99088.44
2018-11-03T02:17:38.908Z,99086.63
2018-11-03T02:20:08.614Z,99081.89
2018-11-03T02:22:37.512Z,99088.15
2018-11-03T02:25:06.445Z,99079.28
2018-11-03T02:27:34.963Z,99075.59
2018-11-03T02:30:03.888Z,99079.50
2018-11-03T02:32:32.641Z,99083.53
2018-11-03T02:35:01.491Z,99086.61
2018-11-03T02:37:29.992Z,99091.17
2018-11-03T02:39:58.460Z,99099.97
2018-11-03T02:42:26.959Z,99098.95
2018-11-03T02:44:55.466Z,99106.29
2018-11-03T02:47:24.028Z,99097.75
2018-11-03T02:49:53.017Z,99088.15
2018-11-03T02:52:21.496Z,99089.73
2018-11-03T02:54:50.216Z,99090.94
2018-11-03T02:57:18.732Z,99095.26
2018-11-03T02:59:47.548Z,99099.02
2018-11-03T03:02:16.065Z,99100.62
2018-11-03T03:04:44.828Z,99102.93
2018-11-03T03:07:13.337Z,99110.80
2018-11-03T03:09:42.213Z,99114.41
2018-11-03T03:12:10.704Z,99116.68
2018-11-03T03:14:39.189Z,99124.23
2018-11-03T03:17:07.707Z,99131.97
2018-11-03T03:19:36.233Z,99138.94
2018-11-03T03:22:04.783Z,99132.77
2018-11-03T03:24:33.504Z,99137.53
2018-11-03T03:27:01.992Z,99138.33
2018-11-03T03:29:30.820Z,99134.12
2018-11-03T03:31:59.207Z,99142.52
2018-11-03T03:34:27.719Z,99149.10
2018-11-03T03:36:56.350Z,99149.42
2018-11-03T03:39:24.824Z,99144.98
2018-11-03T03:41:53.339Z,99150.36
2018-11-03T03:44:21.813Z,99154.70
2018-11-03T03:46:50.601Z,99155.36
2018-11-03T03:49:19.235Z,99156.17
2018-11-03T03:51:47.720Z,99151.41
2018-11-03T03:54:16.180Z,99152.78
2018-11-03T03:56:44.659Z,99151.19
2018-11-03T03:59:13.148Z,99152.77
2018-11-03T04:01:41.915Z,99152.73
2018-11-03T04:04:10.394Z,99151.98
2018-11-03T04:06:38.870Z,99156.50
2018-11-03T04:09:08.443Z,99158.34
2018-11-03T04:14:36.079Z,99154.84
2018-11-03T04:17:04.735Z,99154.32
2018-11-03T04:19:33.277Z,99156.59
2018-11-03T04:22:01.779Z,99160.41
2018-11-03T04:24:30.338Z,99163.58
2018-11-03T04:26:58.819Z,99157.66
2018-11-03T04:29:27.312Z,99155.61
2018-11-03T04:31:55.789Z,99146.42
2018-11-03T04:34:24.292Z,99138.97
2018-11-03T04:36:52.818Z,99133.78
2018-11-03T04:39:21.310Z,99125.33
2018-11-03T04:41:49.796Z,99127.59
2018-11-03T04:44:18.292Z,99121.92
2018-11-03T04:46:46.823Z,99126.77
2018-11-03T04:49:15.635Z,99119.92
2018-11-03T04:51:44.169Z,99118.70
2018-11-03T04:54:12.702Z,99120.25
2018-11-03T04:56:41.227Z,99123.28
2018-11-03T04:59:12.693Z,99124.52
2018-11-03T05:01:41.188Z,99124.84
2018-11-03T05:04:09.683Z,99117.31
2018-11-03T05:06:38.139Z,99118.27
2018-11-03T05:09:09.129Z,99117.09
2018-11-03T05:11:37.615Z,99119.45
2018-11-03T05:14:07.379Z,99117.66
2018-11-03T05:16:36.143Z,99122.33
2018-11-03T05:19:04.682Z,99125.66
2018-11-03T05:21:33.196Z,99132.31
2018-11-03T05:24:01.746Z,99128.51
2018-11-03T05:26:31.207Z,99140.46
2018-11-03T05:28:59.672Z,99146.77
2018-11-03T05:31:28.447Z,99151.24
2018-11-03T05:33:56.967Z,99154.97
2018-11-03T05:36:25.768Z,99154.42
2018-11-03T05:38:54.272Z,99154.20
2018-11-03T05:41:22.723Z,99151.44
2018-11-03T05:43:51.236Z,99152.66
2018-11-03T05:46:20.104Z,99154.07
2018-11-03T05:48:48.520Z,99150.69
2018-11-03T05:51:17.256Z,99153.69
2018-11-03T05:53:45.955Z,99146.59
2018-11-03T05:56:14.633Z,99148.03
2018-11-03T05:58:43.136Z,99154.59
2018-11-03T06:01:11.676Z,99153.15
2018-11-03T06:03:40.177Z,99153.55
2018-11-03T06:06:08.720Z,99154.44
2018-11-03T06:08:37.484Z,99156.16
2018-11-03T06:11:06.272Z,99157.03
2018-11-03T06:13:34.737Z,99165.29
2018-11-03T06:16:03.236Z,99140.23
2018-11-03T06:18:31.695Z,99167.00
2018-11-03T06:21:00.216Z,99172.30
2018-11-03T06:23:28.757Z,99168.07
2018-11-03T06:25:57.460Z,99180.97
2018-11-03T06:28:25.949Z,99177.46
2018-11-03T06:30:54.466Z,99182.85
2018-11-03T06:33:23.115Z,99177.61
2018-11-03T06:35:51.635Z,99168.95
2018-11-03T06:38:20.116Z,99179.84
2018-11-03T06:40:48.624Z,99180.47
2018-11-03T06:43:17.110Z,99191.08
2018-11-03T06:45:45.630Z,99191.30
2018-11-03T06:48:14.151Z,99197.20
2018-11-03T06:50:42.661Z,99196.52
2018-11-03T06:53:11.151Z,99192.47
2018-11-03T06:55:39.711Z,99202.45
2018-11-03T06:58:08.204Z,99207.94
2018-11-03T07:00:36.847Z,99208.43
2018-11-03T07:03:05.860Z,99220.19
2018-11-03T07:05:34.374Z,99227.83
2018-11-03T07:08:03.155Z,99227.14
2018-11-03T07:10:31.630Z,99225.43
2018-11-03T07:13:00.150Z,99224.16
2018-11-03T07:15:29.233Z,99225.88
2018-11-03T07:17:57.705Z,99229.59
2018-11-03T07:20:26.601Z,99229.97
2018-11-03T07:22:55.075Z,99228.59
2018-11-03T07:25:23.611Z,99226.07
2018-11-03T07:27:52.094Z,99222.70
2018-11-03T07:30:20.612Z,99223.26
2018-11-03T07:32:49.112Z,99225.27
2018-11-03T07:35:17.948Z,99223.70
2018-11-03T07:37:46.479Z,99224.39
2018-11-03T07:40:14.945Z,99231.46
2018-11-03T07:42:43.575Z,99220.05
2018-11-03T07:45:11.911Z,99229.61
2018-11-03T07:47:40.707Z,99224.65
2018-11-03T07:50:11.435Z,99226.95
2018-11-03T07:52:40.274Z,99221.36
2018-11-03T07:55:10.977Z,99222.62
2018-11-03T07:57:39.969Z,99204.91
2018-11-03T08:00:10.493Z,99220.31
2018-11-03T08:02:38.966Z,99210.97
2018-11-03T08:05:08.580Z,99217.67
2018-11-03T08:07:37.787Z,99229.05
2018-11-03T08:10:07.078Z,99220.73
2018-11-03T08:12:35.535Z,99221.81
2018-11-03T08:15:04.124Z,99227.59
2018-11-03T08:17:32.764Z,99226.91
2018-11-03T08:20:01.378Z,99223.69
2018-11-03T08:22:30.048Z,99218.63
2018-11-03T08:24:58.539Z,99218.29
2018-11-03T08:27:27.012Z,99219.34
2018-11-03T08:29:55.711Z,99216.28
2018-11-03T08:32:24.286Z,99207.55
2018-11-03T08:34:52.750Z,99219.59
2018-11-03T08:37:21.236Z,99212.98
2018-11-03T08:39:49.698Z,99210.13
2018-11-03T08:42:18.280Z,99213.23
2018-11-03T08:44:46.748Z,99209.37
2018-11-03T08:47:15.215Z,99214.41
2018-11-03T08:49:43.729Z,99214.17
2018-11-03T08:52:12.215Z,99206.27
2018-11-03T08:54:40.732Z,99209.11
2018-11-03T08:57:09.157Z,99208.82
2018-11-03T08:59:37.735Z,99205.36
2018-11-03T09:02:06.438Z,99204.05
2018-11-03T09:04:34.912Z,99206.90
2018-11-03T09:07:03.477Z,99200.48
2018-11-03T09:09:31.998Z,99202.89
2018-11-03T09:12:00.486Z,99208.86
2018-11-03T09:14:29.147Z,99209.73
2018-11-03T09:16:57.645Z,99206.81
2018-11-03T09:19:26.096Z,99209.24
2018-11-03T09:21:54.651Z,99209.17
2018-11-03T09:24:23.107Z,99209.11
2018-11-03T09:26:51.835Z,99211.33
2018-11-03T09:29:20.365Z,99211.10
2018-11-03T09:31:48.921Z,99207.47
2018-11-03T09:34:17.368Z,99211.28
2018-11-03T09:36:45.851Z,99213.48
2018-11-03T09:39:14.594Z,99212.84
2018-11-03T09:41:42.820Z,99217.43
2018-11-03T09:44:11.315Z,99208.86
2018-11-03T09:46:39.782Z,99209.47
2018-11-03T09:49:08.278Z,99210.09
2018-11-03T09:51:36.760Z,99211.86
2018-11-03T09:54:05.383Z,99208.03
2018-11-03T09:56:34.178Z,99206.53
2018-11-03T09:59:02.789Z,99196.42
2018-11-03T10:01:31.275Z,99192.20
2018-11-03T10:03:59.756Z,99185.53
2018-11-03T10:06:28.317Z,99187.26
2018-11-03T10:08:56.782Z,99179.98
2018-11-03T10:11:25.293Z,99183.34
2018-11-03T10:13:53.749Z,99173.47
2018-11-03T10:16:22.239Z,99167.22
2018-11-03T10:18:51.524Z,99162.06
2018-11-03T10:21:20.038Z,99160.29
2018-11-03T10:23:54.940Z,99171.33
2018-11-03T10:26:23.474Z,99173.09
2018-11-03T10:28:51.911Z,99169.70
2018-11-03T10:31:20.415Z,99174.69
2018-11-03T10:33:48.976Z,99181.94
2018-11-03T10:36:17.394Z,99185.69
2018-11-03T10:38:46.012Z,99184.45
2018-11-03T10:41:14.557Z,99186.45
2018-11-03T10:43:43.080Z,99184.13
2018-11-03T10:46:11.607Z,99179.89
2018-11-03T10:48:40.246Z,99178.73
2018-11-03T10:51:09.237Z,99178.78
2018-11-03T10:53:37.810Z,99175.95
2018-11-03T10:56:07.208Z,99170.96
2018-11-03T10:58:35.690Z,99169.45
2018-11-03T11:01:09.472Z,99158.30
2018-11-03T11:03:43.139Z,99156.62
2018-11-03T11:06:16.658Z,99156.91
2018-11-03T11:08:50.412Z,99160.27
2018-11-03T11:11:24.176Z,99172.20
2018-11-03T11:13:52.725Z,99167.05
2018-11-03T11:16:21.466Z,99159.40
2018-11-03T11:18:49.944Z,99158.04
2018-11-03T11:21:18.449Z,99162.72
2018-11-03T11:23:47.272Z,99161.23
2018-11-03T11:26:15.876Z,99154.91
2018-11-03T11:28:44.352Z,99147.59
2018-11-03T11:31:12.889Z,99152.31
2018-11-03T11:33:41.356Z,99142.09
2018-11-03T11:36:09.839Z,99141.33
2018-11-03T11:38:38.428Z,99132.65
2018-11-03T11:41:06.846Z,99130.81
2018-11-03T11:43:35.309Z,99126.38
2018-11-03T11:46:03.791Z,99117.80
2018-11-03T11:48:32.304Z,99115.72
2018-11-03T11:51:00.796Z,99121.77
2018-11-03T11:53:29.292Z,99126.82
2018-11-03T11:55:57.828Z,99127.80
2018-11-03T11:58:26.313Z,99123.61
2018-11-03T12:00:54.768Z,99116.73
2018-11-03T12:03:23.227Z,99122.53
2018-11-03T12:05:52.032Z,99123.09
2018-11-03T12:08:21.308Z,99123.30
2018-11-03T12:10:49.824Z,99124.13
2018-11-03T12:13:18.356Z,99127.75
2018-11-03T12:15:46.828Z,99127.05
2018-11-03T12:18:15.325Z,99131.25
2018-11-03T12:20:43.767Z,99127.75
2018-11-03T12:23:12.304Z,99125.59
2018-11-03T12:25:40.899Z,99115.38
2018-11-03T12:28:09.348Z,99115.55
2018-11-03T12:30:37.864Z,99107.42
2018-11-03T12:33:07.238Z,99110.09
2018-11-03T12:35:35.753Z,99101.44
2018-11-03T12:38:04.218Z,99103.83
2018-11-03T12:40:32.731Z,99097.19
2018-11-03T12:43:01.204Z,99097.09
2018-11-03T12:45:29.734Z,99096.67
2018-11-03T12:47:58.501Z,99090.00
2018-11-03T12:50:26.956Z,99081.88
2018-11-03T12:52:55.465Z,99082.08
2018-11-03T12:55:24.147Z,99086.19
2018-11-03T12:57:52.630Z,99091.68
2018-11-03T13:00:21.124Z,99088.83
2018-11-03T13:02:49.671Z,99086.61
2018-11-03T13:05:18.252Z,99095.59
2018-11-03T13:07:46.883Z,99092.06
2018-11-03T13:10:15.331Z,99088.20
2018-11-03T13:12:43.989Z,99088.16
2018-11-03T13:15:13.374Z,99087.55
2018-11-03T13:17:41.847Z,99075.73
2018-11-03T13:20:12.096Z,99070.61
2018-11-03T13:22:40.886Z,99065.22
2018-11-03T13:25:10.307Z,99068.52
2018-11-03T13:27:39.173Z,99062.39
2018-11-03T13:30:09.350Z,99065.20
2018-11-03T13:32:37.872Z,99068.16
2018-11-03T13:35:07.131Z,99073.22
2018-11-03T13:37:35.484Z,99067.59
2018-11-03T13:40:04.017Z,99067.98
2018-11-03T13:42:33.396Z,99075.28
2018-11-03T13:45:02.690Z,99085.97
2018-11-03T13:47:31.257Z,99087.20
2018-11-03T13:49:59.704Z,99076.84
2018-11-03T13:52:28.183Z,99075.34
2018-11-03T13:54:56.649Z,99081.06
2018-11-03T13:57:25.177Z,99085.33
2018-11-03T13:59:53.628Z,99087.25
2018-11-03T14:02:22.091Z,99081.56
2018-11-03T14:04:50.567Z,99091.05
2018-11-03T14:07:19.116Z,99079.89
2018-11-03T14:09:47.567Z,99082.70
2018-11-03T14:12:16.064Z,99075.61
2018-11-03T14:14:44.510Z,99080.41
2018-11-03T14:17:13.141Z,99074.64
2018-11-03T14:19:41.499Z,99077.02
2018-11-03T14:22:09.940Z,99084.13
2018-11-03T14:24:38.416Z,99080.38
2018-11-03T14:27:06.900Z,99085.20
2018-11-03T14:29:35.568Z,99082.36
2018-11-03T14:32:04.114Z,99070.01
2018-11-03T14:34:32.627Z,99069.69
2018-11-03T14:37:01.064Z,99069.41
2018-11-03T14:39:29.580Z,99067.42
2018-11-03T14:41:58.055Z,99073.67
2018-11-03T14:44:26.513Z,99067.25
2018-11-03T14:46:54.991Z,99066.91
2018-11-03T14:49:24.279Z,99073.33
2018-11-03T14:51:52.835Z,99079.27
2018-11-03T14:54:21.259Z,99064.16
2018-11-03T14:56:49.732Z,99055.09
2018-11-03T14:59:18.546Z,99056.61
2018-11-03T15:01:47.019Z,99055.28
2018-11-03T15:04:15.512Z,99058.04
2018-11-03T15:06:44.076Z,99052.45
2018-11-03T15:09:12.842Z,99052.34
2018-11-03T15:11:41.515Z,99052.12
2018-11-03T15:14:10.799Z,99047.98
2018-11-03T15:16:39.906Z,99054.03
2018-11-03T15:19:08.837Z,99058.73
2018-11-03T15:21:37.356Z,99059.66
2018-11-03T15:24:05.979Z,99058.64
2018-11-03T15:26:34.424Z,99060.78
2018-11-03T15:29:03.253Z,99059.80
2018-11-03T15:31:31.793Z,99060.55
2018-11-03T15:34:00.244Z,99061.35
2018-11-03T15:36:28.776Z,99059.73
2018-11-03T15:38:57.283Z,99070.92
2018-11-03T15:41:25.902Z,99072.75
2018-11-03T15:43:54.268Z,99065.02
2018-11-03T15:46:22.731Z,99060.22
2018-11-03T15:48:51.205Z,99060.38
2018-11-03T15:51:19.635Z,99061.14
2018-11-03T15:53:48.106Z,99065.75
2018-11-03T15:56:16.774Z,99071.52
2018-11-03T15:58:45.243Z,99072.70
2018-11-03T16:01:13.705Z,99071.25
2018-11-03T16:03:42.200Z,99074.80
2018-11-03T16:06:10.691Z,99076.10
2018-11-03T16:08:39.169Z,99076.14
2018-11-03T16:11:07.653Z,99074.27
2018-11-03T16:13:36.126Z,99071.55
2018-11-03T16:16:04.716Z,99077.89
2018-11-03T16:18:33.189Z,99070.70
2018-11-03T16:21:01.696Z,99064.92
2018-11-03T16:23:30.302Z,99063.16
2018-11-03T16:25:58.901Z,99059.26
2018-11-03T16:28:27.369Z,99059.72
2018-11-03T16:30:56.036Z,99068.66
2018-11-03T16:33:24.523Z,99063.33
2018-11-03T16:35:53.069Z,99060.11
2018-11-03T16:38:21.561Z,99064.22
2018-11-03T16:40:50.411Z,99066.74
2018-11-03T16:43:18.952Z,99067.69
2018-11-03T16:45:47.605Z,99063.03
2018-11-03T16:48:16.101Z,99067.77
2018-11-03T16:50:44.590Z,99077.05
2018-11-03T16:53:13.319Z,99067.47
2018-11-03T16:55:41.814Z,99061.45
2018-11-03T16:58:10.296Z,99072.28
2018-11-03T17:00:38.792Z,99064.30
2018-11-03T17:03:07.758Z,99058.52
2018-11-03T17:05:36.251Z,99073.78
2018-11-03T17:08:05.253Z,99073.31
2018-11-03T17:10:33.708Z,99074.44
2018-11-03T17:13:02.236Z,99076.44
2018-11-03T17:15:30.755Z,99066.87
2018-11-03T17:17:59.235Z,99069.26
2018-11-03T17:20:27.759Z,99067.58
2018-11-03T17:22:56.271Z,99068.30
2018-11-03T17:25:24.789Z,99061.67
2018-11-03T17:27:53.267Z,99051.06
2018-11-03T17:30:21.954Z,99046.27
2018-11-03T17:32:50.437Z,99042.75
2018-11-03T17:35:18.988Z,99043.22
2018-11-03T17:37:47.488Z,99043.28
2018-11-03T17:40:16.184Z,99039.31
2018-11-03T17:42:45.663Z,99039.05
2018-11-03T17:45:14.303Z,99031.31
2018-11-03T17:47:42.823Z,99035.52
2018-11-03T17:50:12.786Z,99033.81
2018-11-03T17:52:41.487Z,99029.91
2018-11-03T17:55:10.587Z,99026.52
2018-11-03T17:57:39.213Z,99019.89
2018-11-03T18:00:11.478Z,99015.39
2018-11-03T18:02:40.112Z,99018.25
2018-11-03T18:05:08.584Z,99013.42
2018-11-03T18:07:37.151Z,99020.29
2018-11-03T18:10:06.911Z,99009.89
2018-11-03T18:12:35.477Z,99013.86
2018-11-03T18:15:04.066Z,99002.20
2018-11-03T18:17:32.564Z,99002.25
2018-11-03T18:20:01.077Z,99004.54
2018-11-03T18:22:29.550Z,98990.83
2018-11-03T18:24:58.111Z,98987.02
2018-11-03T18:27:26.548Z,98987.67
2018-11-03T18:29:55.019Z,98991.27
2018-11-03T18:32:23.553Z,98987.27
2018-11-03T18:34:52.371Z,98989.53
2018-11-03T18:37:20.899Z,98939.13
2018-11-03T18:39:49.420Z,98985.61
2018-11-03T18:42:17.933Z,98982.33
2018-11-03T18:44:46.409Z,98974.75
2018-11-03T18:47:14.875Z,98971.66
2018-11-03T18:49:43.357Z,98978.83
2018-11-03T18:52:12.028Z,98973.23
2018-11-03T18:54:40.496Z,98980.00
2018-11-03T18:57:08.946Z,98975.24
2018-11-03T18:59:37.564Z,98973.77
2018-11-03T19:02:06.525Z,98971.51
2018-11-03T19:04:35.031Z,98966.53
2018-11-03T19:07:03.528Z,98973.01
2018-11-03T19:09:32.013Z,98971.72
2018-11-03T19:12:00.557Z,98971.45
2018-11-03T19:14:29.068Z,98965.41
2018-11-03T19:16:57.523Z,98961.30
2018-11-03T19:19:56.396Z,98951.46
2018-11-03T19:22:24.825Z,98951.87
2018-11-03T19:24:53.567Z,98949.22
2018-11-03T19:27:22.343Z,98939.70
2018-11-03T19:29:50.981Z,98937.44
2018-11-03T19:32:19.536Z,98940.61
2018-11-03T19:34:48.015Z,98937.28
2018-11-03T19:37:16.509Z,98940.45
2018-11-03T19:39:45.308Z,98944.41
2018-11-03T19:42:14.092Z,98944.64
2018-11-03T19:44:42.762Z,98946.52
2018-11-03T19:47:11.239Z,98941.42
2018-11-03T19:49:39.715Z,98940.21
2018-11-03T19:52:08.184Z,98932.13
2018-11-03T19:54:36.687Z,98938.11
2018-11-03T19:57:05.360Z,98936.59
2018-11-03T19:59:33.996Z,98942.20
2018-11-03T20:02:02.437Z,98941.94
2018-11-03T20:04:30.937Z,98936.80
2018-11-03T20:06:59.395Z,98938.66
2018-11-03T20:09:28.140Z,98931.36
2018-11-03T20:11:56.638Z,98934.17
2018-11-03T20:14:25.106Z,98933.66
2018-11-03T20:16:53.543Z,98933.45
2018-11-03T20:19:22.015Z,98934.41
2018-11-03T20:21:50.671Z,98944.77
2018-11-03T20:24:19.168Z,98948.27
2018-11-03T20:26:47.875Z,98942.34
2018-11-03T20:29:16.492Z,98940.75
2018-11-03T20:31:44.965Z,98938.95
2018-11-03T20:34:13.939Z,98942.45
2018-11-03T20:36:43.018Z,98943.44
2018-11-03T20:39:12.024Z,98948.03
2018-11-03T20:41:40.561Z,98942.16
2018-11-03T20:44:09.173Z,98949.72
2018-11-03T20:46:38.295Z,98944.43
2018-11-03T20:49:07.421Z,98942.16
2018-11-03T20:51:35.912Z,98938.95
2018-11-03T20:54:04.375Z,98938.23
2018-11-03T20:56:32.884Z,98927.05
2018-11-03T20:59:01.325Z,98922.08
2018-11-03T21:01:29.843Z,98922.73
2018-11-03T21:03:58.882Z,98915.81
2018-11-03T21:06:27.380Z,98909.38
2018-11-03T21:08:55.840Z,98908.47
2018-11-03T21:11:24.346Z,98902.20
2018-11-03T21:13:52.881Z,98888.85
2018-11-03T21:16:21.485Z,98891.94
2018-11-03T21:18:50.401Z,98897.53
2018-11-03T21:21:18.844Z,98894.33
2018-11-03T21:23:47.557Z,98886.81
2018-11-03T21:26:16.285Z,98883.42
2018-11-03T21:28:44.798Z,98882.14
2018-11-03T21:31:13.287Z,98876.80
2018-11-03T21:33:42.264Z,98869.15
2018-11-03T21:36:10.774Z,98868.45
2018-11-03T21:38:39.344Z,98870.88
2018-11-03T21:41:08.217Z,98880.45
2018-11-03T21:43:37.048Z,98870.50
2018-11-03T21:46:06.491Z,98855.48
2018-11-03T21:48:35.307Z,98869.00
2018-11-03T21:51:03.913Z,98865.30
2018-11-03T21:53:32.541Z,98858.05
2018-11-03T21:56:01.149Z,98862.09
2018-11-03T21:58:29.780Z,98860.74
2018-11-03T22:00:58.472Z,98849.64
2018-11-03T22:03:27.207Z,98853.47
2018-11-03T22:05:55.899Z,98841.56
2018-11-03T22:08:24.383Z,98828.03
2018-11-03T22:10:52.883Z,98831.97
2018-11-03T22:13:21.362Z,98838.11
2018-11-03T22:15:49.898Z,98826.17
2018-11-03T22:18:18.384Z,98827.97
2018-11-03T22:20:46.932Z,98837.13
2018-11-03T22:23:15.473Z,98830.87
2018-11-03T22:25:43.959Z,98827.41
2018-11-03T22:28:12.356Z,98824.42
2018-11-03T22:30:40.837Z,98822.22
2018-11-03T22:33:09.323Z,98815.72
2018-11-03T22:35:37.792Z,98812.52
2018-11-03T22:38:06.574Z,98814.73
2018-11-03T22:40:35.307Z,98812.13
2018-11-03T22:43:03.769Z,98809.58
2018-11-03T22:45:32.242Z,98799.70
2018-11-03T22:48:00.703Z,98806.36
2018-11-03T22:50:29.488Z,98807.98
2018-11-03T22:52:58.019Z,98799.31
2018-11-03T22:55:26.582Z,98794.05
2018-11-03T22:57:55.092Z,98784.14
2018-11-03T23:00:23.792Z,98773.27
2018-11-03T23:02:52.555Z,98768.49
2018-11-03T23:05:21.011Z,98773.44
2018-11-03T23:07:49.866Z,98770.62
2018-11-03T23:10:18.346Z,98769.28
2018-11-03T23:12:46.921Z,98732.84
2018-11-03T23:15:15.391Z,98767.31
2018-11-03T23:17:43.863Z,98769.02
2018-11-03T23:20:13.906Z,98763.14
2018-11-03T23:22:42.392Z,98766.77
2018-11-03T23:25:11.115Z,98771.11
2018-11-03T23:27:39.857Z,98759.56
2018-11-03T23:30:10.665Z,98760.41
2018-11-03T23:32:39.316Z,98754.74
2018-11-03T23:35:10.109Z,98752.83
2018-11-03T23:37:38.588Z,98746.55
2018-11-03T23:40:08.341Z,98745.77
2018-11-03T23:42:36.870Z,98729.20
2018-11-03T23:45:06.363Z,98741.63
2018-11-03T23:47:35.011Z,98747.52
2018-11-03T23:50:03.824Z,98736.72
2018-11-03T23:52:34.085Z,98733.52
2018-11-03T23:55:04.577Z,98732.26
2018-11-03T23:57:33.140Z,98729.98
